createdAt,value
2023-03-17T00:01:54.589Z,64.40
2023-03-17T00:04:24.995Z,64.40
2023-03-17T00:06:55.424Z,64.30
2023-03-17T00:09:23.772Z,64.60
2023-03-17T00:11:52.162Z,64.40
2023-03-17T00:14:21.378Z,64.10
2023-03-17T00:16:52.024Z,64.30
2023-03-17T00:19:30.964Z,64.20
2023-03-17T00:22:01.157Z,64.00
2023-03-17T00:24:30.248Z,64.30
2023-03-17T00:26:58.976Z,64.20
2023-03-17T00:29:28.021Z,64.10
2023-03-17T00:31:58.319Z,64.10
2023-03-17T00:34:27.267Z,64.10
2023-03-17T00:36:56.119Z,64.30
2023-03-17T00:39:27.105Z,64.50
2023-03-17T00:41:55.587Z,64.50
2023-03-17T00:44:24.139Z,64.40
2023-03-17T00:46:52.678Z,64.10
2023-03-17T00:49:24.337Z,64.70
2023-03-17T00:51:53.088Z,64.60
2023-03-17T00:54:22.275Z,64.90
2023-03-17T00:56:53.236Z,65.10
2023-03-17T00:59:28.116Z,64.90
2023-03-17T01:01:57.339Z,64.90
2023-03-17T01:04:25.794Z,64.90
2023-03-17T01:06:54.413Z,64.70
2023-03-17T01:09:27.547Z,64.90
2023-03-17T01:11:57.181Z,65.00
2023-03-17T01:14:25.826Z,65.10
2023-03-17T01:16:55.180Z,65.40
2023-03-17T01:19:23.685Z,65.50
2023-03-17T01:21:52.474Z,65.80
2023-03-17T01:24:21.083Z,65.70
2023-03-17T01:26:49.339Z,66.00
2023-03-17T01:29:18.994Z,66.30
2023-03-17T01:31:47.711Z,66.50
2023-03-17T01:34:16.003Z,66.70
2023-03-17T01:36:44.198Z,66.50
2023-03-17T01:39:12.998Z,66.50
2023-03-17T01:41:41.574Z,66.60
2023-03-17T01:44:18.752Z,66.60
2023-03-17T01:46:47.712Z,67.00
2023-03-17T01:49:24.990Z,67.10
2023-03-17T01:52:03.990Z,66.90
2023-03-17T01:54:39.945Z,67.10
2023-03-17T01:57:14.253Z,67.30
2023-03-17T01:59:50.191Z,67.30
2023-03-17T02:02:25.635Z,68.10
2023-03-17T02:04:54.281Z,68.20
2023-03-17T02:07:24.683Z,68.40
2023-03-17T02:09:53.673Z,68.20
2023-03-17T02:12:24.641Z,68.60
2023-03-17T02:14:54.687Z,68.70
2023-03-17T02:17:27.271Z,68.80
2023-03-17T02:19:56.928Z,69.00
2023-03-17T02:22:26.770Z,68.90
2023-03-17T02:24:58.349Z,69.00
2023-03-17T02:27:33.887Z,68.80
2023-03-17T02:30:02.440Z,69.20
2023-03-17T02:32:30.786Z,69.30
2023-03-17T02:34:59.072Z,69.20
2023-03-17T02:37:28.880Z,69.00
2023-03-17T02:39:57.332Z,69.10
2023-03-17T02:42:25.655Z,69.40
2023-03-17T02:44:54.253Z,69.50
2023-03-17T02:47:22.766Z,69.50
2023-03-17T02:49:52.091Z,69.50
2023-03-17T02:52:20.349Z,69.80
2023-03-17T02:54:50.217Z,69.80
2023-03-17T02:57:18.668Z,69.90
2023-03-17T02:59:46.969Z,70.30
2023-03-17T03:02:15.470Z,70.60
2023-03-17T03:04:44.201Z,70.80
2023-03-17T03:07:13.143Z,70.90
2023-03-17T03:09:42.033Z,71.30
2023-03-17T03:12:13.884Z,71.40
2023-03-17T03:14:42.562Z,71.60
2023-03-17T03:17:11.058Z,71.50
2023-03-17T03:19:39.557Z,71.70
2023-03-17T03:22:08.326Z,72.10
2023-03-17T03:24:36.883Z,72.20
2023-03-17T03:27:05.357Z,72.30
2023-03-17T03:29:35.054Z,72.50
2023-03-17T03:32:03.416Z,72.70
2023-03-17T03:34:31.949Z,72.70
2023-03-17T03:37:00.252Z,72.80
2023-03-17T03:39:28.474Z,72.80
2023-03-17T03:41:58.242Z,72.80
2023-03-17T03:44:26.724Z,72.90
2023-03-17T03:46:56.267Z,72.80
2023-03-17T03:49:24.515Z,73.00
2023-03-17T03:51:52.693Z,72.90
2023-03-17T03:54:21.078Z,72.90
2023-03-17T03:56:49.296Z,73.00
2023-03-17T03:59:17.534Z,73.30
2023-03-17T04:01:46.107Z,73.30
2023-03-17T04:04:16.263Z,73.20
2023-03-17T04:06:44.570Z,73.30
2023-03-17T04:09:13.414Z,73.30
2023-03-17T04:11:41.796Z,73.50
2023-03-17T04:14:10.110Z,73.60
2023-03-17T04:16:38.329Z,73.70
2023-03-17T04:19:06.792Z,73.50
2023-03-17T04:21:36.639Z,73.60
2023-03-17T04:24:05.352Z,73.70
2023-03-17T04:26:33.915Z,73.70
2023-03-17T04:29:02.133Z,74.00
2023-03-17T04:31:30.747Z,73.80
2023-03-17T04:33:59.067Z,74.10
2023-03-17T04:36:27.318Z,74.10
2023-03-17T04:38:56.886Z,74.20
2023-03-17T04:41:25.286Z,74.20
2023-03-17T04:43:53.496Z,74.30
2023-03-17T04:46:21.934Z,74.20
2023-03-17T04:48:50.139Z,74.20
2023-03-17T04:51:18.662Z,74.20
2023-03-17T04:53:47.075Z,74.20
2023-03-17T04:56:17.589Z,74.20
2023-03-17T04:58:46.567Z,74.10
2023-03-17T05:01:15.035Z,74.10
2023-03-17T05:03:43.431Z,74.30
2023-03-17T05:06:12.015Z,74.10
2023-03-17T05:08:40.388Z,74.20
2023-03-17T05:11:08.609Z,74.20
2023-03-17T05:13:38.311Z,74.10
2023-03-17T05:16:07.756Z,74.10
2023-03-17T05:18:37.473Z,74.10
2023-03-17T05:21:07.714Z,74.00
2023-03-17T05:23:36.083Z,73.80
2023-03-17T05:26:04.902Z,74.10
2023-03-17T05:28:33.332Z,74.10
2023-03-17T05:31:03.594Z,74.20
2023-03-17T05:33:31.964Z,74.40
2023-03-17T05:36:00.279Z,74.30
2023-03-17T05:38:28.499Z,74.40
2023-03-17T05:40:57.048Z,74.40
2023-03-17T05:43:25.606Z,74.30
2023-03-17T05:45:53.941Z,74.30
2023-03-17T05:48:23.722Z,74.50
2023-03-17T05:50:52.160Z,74.50
2023-03-17T05:53:20.846Z,74.40
2023-03-17T05:55:49.344Z,74.60
2023-03-17T05:58:17.557Z,74.40
2023-03-17T06:00:46.223Z,74.50
2023-03-17T06:03:14.792Z,74.60
2023-03-17T06:05:44.393Z,74.70
2023-03-17T06:08:13.362Z,75.00
2023-03-17T06:10:42.337Z,74.70
2023-03-17T06:13:11.081Z,74.90
2023-03-17T06:15:39.814Z,74.70
2023-03-17T06:18:09.018Z,75.00
2023-03-17T06:20:37.659Z,74.90
2023-03-17T06:23:08.030Z,74.90
2023-03-17T06:25:37.158Z,74.70
2023-03-17T06:28:06.338Z,74.70
2023-03-17T06:30:36.478Z,74.70
2023-03-17T06:33:05.945Z,74.70
2023-03-17T06:35:35.122Z,74.70
2023-03-17T06:38:03.658Z,74.80
2023-03-17T06:40:34.092Z,74.60
2023-03-17T06:43:03.009Z,74.50
2023-03-17T06:45:32.943Z,74.50
2023-03-17T06:48:01.691Z,74.40
2023-03-17T06:50:30.019Z,74.20
2023-03-17T06:52:58.291Z,74.30
2023-03-17T06:55:27.395Z,74.30
2023-03-17T06:57:57.388Z,74.20
2023-03-17T07:00:25.851Z,73.70
2023-03-17T07:02:54.330Z,74.00
2023-03-17T07:05:22.846Z,74.00
2023-03-17T07:07:51.324Z,74.00
2023-03-17T07:10:20.490Z,73.90
2023-03-17T07:12:49.059Z,73.80
2023-03-17T07:15:20.817Z,73.70
2023-03-17T07:17:49.131Z,73.60
2023-03-17T07:20:17.930Z,73.80
2023-03-17T07:22:46.518Z,73.20
2023-03-17T07:25:15.374Z,73.00
2023-03-17T07:27:43.658Z,72.80
2023-03-17T07:30:14.972Z,72.80
2023-03-17T07:32:44.773Z,72.70
2023-03-17T07:35:13.107Z,72.50
2023-03-17T07:37:41.685Z,72.00
2023-03-17T07:40:12.169Z,71.70
2023-03-17T07:42:40.463Z,71.80
2023-03-17T07:45:10.055Z,71.40
2023-03-17T07:47:39.300Z,71.30
2023-03-17T07:50:10.903Z,71.10
2023-03-17T07:52:39.544Z,70.80
2023-03-17T07:55:10.607Z,70.40
2023-03-17T07:57:39.182Z,70.50
2023-03-17T08:00:13.559Z,70.00
2023-03-17T08:02:42.170Z,69.90
2023-03-17T08:05:13.360Z,69.30
2023-03-17T08:07:41.586Z,69.30
2023-03-17T08:10:12.924Z,69.10
2023-03-17T08:12:42.621Z,69.10
2023-03-17T08:15:12.359Z,68.80
2023-03-17T08:17:40.679Z,68.20
2023-03-17T08:20:12.695Z,68.50
2023-03-17T08:22:41.469Z,68.30
2023-03-17T08:25:11.703Z,67.60
2023-03-17T08:27:40.658Z,66.60
2023-03-17T08:30:11.226Z,66.20
2023-03-17T08:32:39.485Z,66.20
2023-03-17T08:35:08.993Z,65.80
2023-03-17T08:37:38.855Z,64.10
2023-03-17T08:40:10.042Z,64.80
2023-03-17T08:42:38.587Z,64.30
2023-03-17T08:45:08.689Z,65.60
2023-03-17T08:47:37.462Z,65.00
2023-03-17T08:50:08.859Z,64.10
2023-03-17T08:52:38.661Z,64.20
2023-03-17T08:55:07.982Z,64.10
2023-03-17T08:57:36.304Z,64.20
2023-03-17T09:00:10.951Z,63.90
2023-03-17T09:02:39.371Z,64.60
2023-03-17T09:05:08.754Z,64.10
2023-03-17T09:07:38.921Z,62.20
2023-03-17T09:10:16.812Z,63.70
2023-03-17T09:12:45.086Z,61.90
2023-03-17T09:15:14.015Z,61.80
2023-03-17T09:17:43.743Z,62.40
2023-03-17T09:20:13.820Z,61.20
2023-03-17T09:22:43.439Z,61.40
2023-03-17T09:25:12.351Z,60.90
2023-03-17T09:27:40.535Z,61.70
2023-03-17T09:30:10.860Z,60.60
2023-03-17T09:32:39.109Z,60.30
2023-03-17T09:35:08.095Z,60.00
2023-03-17T09:37:36.427Z,59.60
2023-03-17T09:40:09.290Z,60.20
2023-03-17T09:42:48.072Z,58.40
2023-03-17T09:45:29.785Z,58.20
2023-03-17T09:48:46.467Z,58.10
2023-03-17T09:51:19.487Z,58.00
2023-03-17T09:53:56.125Z,57.60
2023-03-17T09:56:28.544Z,57.90
2023-03-17T09:59:01.131Z,56.70
2023-03-17T10:01:29.582Z,57.20
2023-03-17T10:03:57.874Z,56.30
2023-03-17T10:06:37.807Z,57.40
2023-03-17T10:09:26.153Z,55.10
2023-03-17T10:12:06.040Z,54.90
2023-03-17T10:14:51.474Z,52.50
2023-03-17T10:17:24.631Z,52.80
2023-03-17T10:20:00.685Z,52.70
2023-03-17T10:22:36.157Z,51.40
2023-03-17T10:25:11.909Z,52.60
2023-03-17T10:27:44.203Z,52.40
2023-03-17T10:30:17.316Z,51.70
2023-03-17T10:32:46.700Z,50.20
2023-03-17T10:35:16.897Z,50.40
2023-03-17T10:37:47.955Z,50.70
2023-03-17T10:40:25.230Z,50.30
2023-03-17T10:43:12.144Z,51.10
2023-03-17T10:45:48.748Z,50.80
2023-03-17T10:48:20.675Z,50.60
2023-03-17T10:50:49.690Z,49.20
2023-03-17T10:53:28.209Z,49.60
2023-03-17T10:56:02.437Z,50.00
2023-03-17T10:58:51.495Z,51.30
2023-03-17T11:01:24.996Z,50.30
2023-03-17T11:03:53.438Z,50.80
2023-03-17T11:06:32.633Z,49.80
2023-03-17T11:09:11.053Z,51.00
2023-03-17T11:11:47.981Z,51.10
2023-03-17T11:14:20.524Z,51.00
2023-03-17T11:16:55.605Z,50.50
2023-03-17T11:19:38.600Z,51.50
2023-03-17T11:22:12.709Z,52.40
2023-03-17T11:24:55.426Z,51.40
2023-03-17T11:27:32.443Z,50.00
2023-03-17T11:30:20.652Z,51.10
2023-03-17T11:32:57.633Z,51.30
2023-03-17T11:35:49.507Z,51.40
2023-03-17T11:38:25.989Z,51.40
2023-03-17T11:41:17.038Z,51.80
2023-03-17T11:44:14.834Z,51.40
2023-03-17T11:46:50.372Z,51.30
2023-03-17T11:49:22.876Z,52.10
2023-03-17T11:52:03.403Z,51.70
2023-03-17T11:54:45.747Z,51.20
2023-03-17T11:57:19.752Z,51.20
2023-03-17T11:59:53.674Z,51.30
2023-03-17T12:02:30.947Z,50.60
2023-03-17T12:05:05.090Z,50.60
2023-03-17T12:07:37.468Z,50.90
2023-03-17T12:10:17.684Z,50.20
2023-03-17T12:12:51.739Z,51.50
2023-03-17T12:15:30.468Z,51.30
2023-03-17T12:18:04.301Z,51.30
2023-03-17T12:20:42.284Z,51.60
2023-03-17T12:23:18.883Z,51.20
2023-03-17T12:25:57.687Z,50.40
2023-03-17T12:28:29.828Z,49.90
2023-03-17T12:31:06.820Z,51.20
2023-03-17T12:33:43.800Z,49.90
2023-03-17T12:36:17.024Z,51.00
2023-03-17T12:38:51.272Z,50.20
2023-03-17T12:41:49.765Z,50.50
2023-03-17T12:44:38.044Z,51.30
2023-03-17T12:47:22.856Z,51.00
2023-03-17T12:50:36.747Z,51.10
2023-03-17T12:53:26.702Z,51.50
2023-03-17T12:55:59.579Z,52.30
2023-03-17T12:58:34.083Z,51.50
2023-03-17T13:01:17.401Z,52.70
2023-03-17T13:04:02.645Z,52.10
2023-03-17T13:06:40.804Z,52.40
2023-03-17T13:09:48.228Z,52.50
2023-03-17T13:13:07.182Z,52.10
2023-03-17T13:16:28.009Z,51.70
2023-03-17T13:19:18.668Z,52.00
2023-03-17T13:22:13.926Z,52.60
2023-03-17T13:24:48.411Z,53.40
2023-03-17T13:27:45.152Z,53.40
2023-03-17T13:30:57.025Z,53.30
2023-03-17T13:33:32.541Z,53.50
2023-03-17T13:36:30.288Z,53.00
2023-03-17T13:39:36.303Z,52.80
2023-03-17T13:42:43.385Z,52.40
2023-03-17T13:45:37.342Z,51.50
2023-03-17T13:48:34.101Z,52.00
2023-03-17T13:51:15.629Z,52.70
2023-03-17T13:53:51.046Z,53.50
2023-03-17T13:56:26.357Z,52.80
2023-03-17T13:59:07.432Z,52.40
2023-03-17T14:01:40.836Z,52.40
2023-03-17T14:04:20.237Z,52.90
2023-03-17T14:06:52.605Z,52.50
2023-03-17T14:09:35.747Z,53.50
2023-03-17T14:12:13.608Z,53.90
2023-03-17T14:14:51.252Z,53.00
2023-03-17T14:17:24.815Z,53.60
2023-03-17T14:20:08.184Z,52.80
2023-03-17T14:22:45.018Z,53.70
2023-03-17T14:25:19.438Z,53.50
2023-03-17T14:27:52.843Z,52.50
2023-03-17T14:30:24.777Z,52.90
2023-03-17T14:33:00.004Z,52.90
2023-03-17T14:35:32.384Z,52.30
2023-03-17T14:38:02.675Z,52.60
2023-03-17T14:40:36.874Z,52.10
2023-03-17T14:43:06.845Z,52.30
2023-03-17T14:45:50.394Z,53.10
2023-03-17T14:48:26.767Z,52.40
2023-03-17T14:50:59.794Z,50.70
2023-03-17T14:53:28.065Z,51.40
2023-03-17T14:55:57.313Z,51.50
2023-03-17T14:58:31.377Z,51.80
2023-03-17T15:01:07.134Z,52.10
2023-03-17T15:03:40.564Z,51.80
2023-03-17T15:06:24.718Z,52.80
2023-03-17T15:08:53.846Z,52.10
2023-03-17T15:11:29.872Z,53.50
2023-03-17T15:14:16.361Z,51.70
2023-03-17T15:16:50.273Z,52.50
2023-03-17T15:19:27.542Z,51.30
2023-03-17T15:22:00.270Z,51.10
2023-03-17T15:24:40.527Z,51.70
2023-03-17T15:27:16.794Z,52.80
2023-03-17T15:29:48.274Z,52.40
2023-03-17T15:32:20.115Z,53.00
2023-03-17T15:34:48.854Z,52.80
2023-03-17T15:37:19.257Z,52.20
2023-03-17T15:39:48.363Z,52.90
2023-03-17T15:42:19.556Z,53.20
2023-03-17T15:44:49.265Z,53.20
2023-03-17T15:47:20.433Z,53.60
2023-03-17T15:49:50.960Z,53.20
2023-03-17T15:52:24.988Z,53.60
2023-03-17T15:54:54.552Z,53.70
2023-03-17T15:57:23.388Z,53.20
2023-03-17T15:59:53.373Z,54.30
2023-03-17T16:02:31.778Z,54.30
2023-03-17T16:05:01.428Z,54.30
2023-03-17T16:07:31.046Z,54.30
2023-03-17T16:09:59.460Z,54.90
2023-03-17T16:12:27.757Z,54.80
2023-03-17T16:14:57.407Z,54.70
2023-03-17T16:17:29.038Z,55.20
2023-03-17T16:19:58.459Z,55.10
2023-03-17T16:22:40.035Z,55.90
2023-03-17T16:25:21.453Z,55.80
2023-03-17T16:27:50.351Z,55.90
2023-03-17T16:30:23.202Z,56.00
2023-03-17T16:32:52.181Z,55.70
2023-03-17T16:35:23.690Z,55.80
2023-03-17T16:37:54.349Z,56.00
2023-03-17T16:40:26.175Z,56.40
2023-03-17T16:42:55.205Z,56.10
2023-03-17T16:45:29.738Z,56.20
2023-03-17T16:47:58.614Z,57.00
2023-03-17T16:50:31.150Z,56.80
2023-03-17T16:53:00.654Z,57.00
2023-03-17T16:55:30.608Z,57.40
2023-03-17T16:58:02.578Z,58.20
2023-03-17T17:00:33.356Z,58.50
2023-03-17T17:03:01.853Z,57.80
2023-03-17T17:05:32.212Z,57.10
2023-03-17T17:08:00.854Z,55.40
2023-03-17T17:10:32.474Z,54.90
2023-03-17T17:13:01.221Z,53.70
2023-03-17T17:15:31.840Z,53.90
2023-03-17T17:18:03.993Z,52.80
2023-03-17T17:20:35.911Z,52.00
2023-03-17T17:23:05.012Z,51.70
2023-03-17T17:25:34.209Z,52.50
2023-03-17T17:28:02.609Z,51.90
2023-03-17T17:30:33.411Z,51.40
2023-03-17T17:33:02.316Z,51.30
2023-03-17T17:35:33.437Z,51.50
2023-03-17T17:38:03.052Z,51.20
2023-03-17T17:40:32.454Z,51.70
2023-03-17T17:43:01.604Z,52.10
2023-03-17T17:45:33.838Z,51.80
2023-03-17T17:48:02.124Z,52.60
2023-03-17T17:50:31.938Z,52.70
2023-03-17T17:53:05.257Z,52.90
2023-03-17T17:55:34.767Z,52.50
2023-03-17T17:58:03.174Z,52.40
2023-03-17T18:00:33.445Z,53.00
2023-03-17T18:03:01.822Z,53.10
2023-03-17T18:05:32.228Z,52.80
2023-03-17T18:08:02.418Z,53.30
2023-03-17T18:10:31.771Z,53.40
2023-03-17T18:13:00.344Z,53.50
2023-03-17T18:15:29.126Z,53.70
2023-03-17T18:17:58.822Z,53.80
2023-03-17T18:20:27.448Z,53.50
2023-03-17T18:22:55.849Z,53.20
2023-03-17T18:25:25.503Z,53.60
2023-03-17T18:27:54.254Z,53.00
2023-03-17T18:30:26.186Z,53.20
2023-03-17T18:33:03.147Z,53.20
2023-03-17T18:35:32.105Z,53.00
2023-03-17T18:38:01.516Z,53.30
2023-03-17T18:40:31.055Z,53.40
2023-03-17T18:42:59.633Z,53.50
2023-03-17T18:45:28.265Z,53.60
2023-03-17T18:47:58.087Z,53.30
2023-03-17T18:50:26.737Z,53.60
2023-03-17T18:52:55.875Z,53.70
2023-03-17T18:55:24.246Z,53.80
2023-03-17T18:57:54.504Z,54.40
2023-03-17T19:00:25.294Z,54.10
2023-03-17T19:02:54.690Z,54.40
2023-03-17T19:05:25.641Z,54.60
2023-03-17T19:07:54.136Z,54.60
2023-03-17T19:10:22.686Z,54.40
2023-03-17T19:12:52.252Z,54.70
2023-03-17T19:15:21.655Z,54.90
2023-03-17T19:17:50.434Z,54.90
2023-03-17T19:20:20.065Z,55.10
2023-03-17T19:22:49.970Z,55.30
2023-03-17T19:25:18.459Z,55.40
2023-03-17T19:27:46.997Z,55.70
2023-03-17T19:30:16.265Z,56.00
2023-03-17T19:32:44.625Z,55.70
2023-03-17T19:35:12.980Z,56.00
2023-03-17T19:37:41.422Z,56.20
2023-03-17T19:40:13.716Z,56.90
2023-03-17T19:42:42.204Z,56.40
2023-03-17T19:45:11.690Z,56.70
2023-03-17T19:47:40.751Z,57.00
2023-03-17T19:50:11.157Z,57.10
2023-03-17T19:52:39.424Z,57.50
2023-03-17T19:55:10.728Z,57.20
2023-03-17T19:57:39.103Z,58.00
2023-03-17T20:00:09.849Z,57.70
2023-03-17T20:02:38.369Z,58.00
2023-03-17T20:05:08.475Z,58.40
2023-03-17T20:07:37.098Z,58.30
2023-03-17T20:10:07.711Z,58.80
2023-03-17T20:12:38.482Z,58.90
2023-03-17T20:15:09.318Z,58.60
2023-03-17T20:17:37.841Z,59.00
2023-03-17T20:20:09.197Z,58.80
2023-03-17T20:22:39.097Z,58.70
2023-03-17T20:25:10.353Z,58.70
2023-03-17T20:27:40.293Z,58.70
2023-03-17T20:30:12.294Z,58.90
2023-03-17T20:32:40.700Z,59.00
2023-03-17T20:35:10.057Z,58.90
2023-03-17T20:37:38.874Z,59.10
2023-03-17T20:40:09.955Z,59.10
2023-03-17T20:42:39.429Z,59.20
2023-03-17T20:45:08.872Z,59.30
2023-03-17T20:47:37.614Z,59.10
2023-03-17T20:50:08.614Z,59.20
2023-03-17T20:52:37.196Z,59.20
2023-03-17T20:55:06.392Z,59.60
2023-03-17T20:57:35.380Z,59.80
2023-03-17T21:00:06.197Z,59.70
2023-03-17T21:02:34.790Z,59.90
2023-03-17T21:05:04.530Z,60.10
2023-03-17T21:07:34.225Z,60.30
2023-03-17T21:10:02.843Z,60.80
2023-03-17T21:12:31.858Z,60.70
2023-03-17T21:15:00.814Z,61.20
2023-03-17T21:17:30.812Z,60.80
2023-03-17T21:19:59.220Z,60.90
2023-03-17T21:22:27.712Z,61.20
2023-03-17T21:24:56.001Z,61.40
2023-03-17T21:27:24.378Z,61.30
2023-03-17T21:29:53.024Z,61.60
2023-03-17T21:32:21.389Z,61.70
2023-03-17T21:34:51.028Z,61.80
2023-03-17T21:37:19.344Z,61.90
2023-03-17T21:39:47.662Z,61.80
2023-03-17T21:42:16.020Z,62.10
2023-03-17T21:44:45.815Z,62.30
2023-03-17T21:47:14.138Z,62.40
2023-03-17T21:49:42.479Z,62.50
2023-03-17T21:52:12.482Z,62.40
2023-03-17T21:54:40.761Z,62.50
2023-03-17T21:57:09.385Z,62.90
2023-03-17T21:59:38.627Z,62.70
2023-03-17T22:02:07.284Z,63.10
2023-03-17T22:04:35.601Z,63.00
2023-03-17T22:07:04.637Z,63.00
2023-03-17T22:09:34.348Z,63.00
2023-03-17T22:12:03.723Z,63.10
2023-03-17T22:14:32.199Z,63.20
2023-03-17T22:17:00.610Z,63.20
2023-03-17T22:19:29.363Z,63.10
2023-03-17T22:21:57.642Z,63.30
2023-03-17T22:24:25.948Z,63.60
2023-03-17T22:26:55.955Z,63.50
2023-03-17T22:29:24.384Z,64.00
2023-03-17T22:31:52.829Z,64.20
2023-03-17T22:34:21.100Z,64.10
2023-03-17T22:36:49.419Z,64.60
2023-03-17T22:39:17.854Z,64.70
2023-03-17T22:41:46.153Z,64.80
2023-03-17T22:44:15.897Z,64.80
2023-03-17T22:46:44.242Z,65.20
2023-03-17T22:49:12.885Z,65.50
2023-03-17T22:51:42.115Z,65.40
2023-03-17T22:54:11.397Z,65.50
2023-03-17T22:56:40.109Z,65.60
2023-03-17T22:59:08.413Z,65.90
2023-03-17T23:01:38.091Z,65.90
2023-03-17T23:04:06.561Z,66.10
2023-03-17T23:06:35.250Z,66.40
2023-03-17T23:09:03.545Z,67.30
2023-03-17T23:11:31.962Z,69.00
2023-03-17T23:14:00.363Z,69.20
2023-03-17T23:16:28.719Z,69.90
2023-03-17T23:18:58.526Z,69.60
2023-03-17T23:21:31.821Z,69.40
2023-03-17T23:24:01.042Z,69.50
2023-03-17T23:26:30.065Z,69.40
2023-03-17T23:28:58.537Z,69.90
2023-03-17T23:31:27.456Z,69.90
2023-03-17T23:33:57.099Z,70.00
2023-03-17T23:36:25.405Z,69.70
2023-03-17T23:38:53.899Z,70.00
2023-03-17T23:41:22.647Z,70.00
2023-03-17T23:43:51.058Z,70.30
2023-03-17T23:46:19.623Z,70.60
2023-03-17T23:48:48.315Z,70.50
2023-03-17T23:51:17.910Z,70.60
2023-03-17T23:53:46.671Z,70.40
2023-03-17T23:56:15.296Z,70.80
2023-03-17T23:58:43.716Z,70.90
